This is the latest recevied weather packets stored in our database for station/object IW5CI-13. If no packets are shown the sender has not sent any weather packets the latest 10 day(s).
| Time | Temp. | Humidity | Pressure | Rain* | Wind** | Luminosity | Snow |
|---|---|---|---|---|---|---|---|
| 1777458583 | 21.67° C | 17% | 1015.6 hPa | - | - | - | - |
| 1777457379 | 21.67° C | 17% | 1015.8 hPa | - | - | - | - |
| 1777456174 | 21.11° C | 19% | 1015.9 hPa | - | - | - | - |
| 1777454970 | 21.11° C | 20% | 1016.1 hPa | - | - | - | - |
| 1777453765 | 20° C | 23% | 1016.1 hPa | - | - | - | - |
| 1777452561 | 18.89° C | 25% | 1016.2 hPa | - | - | - | - |
| 1777451356 | 17.78° C | 27% | 1016.5 hPa | - | - | - | - |
| 1777450152 | 16.11° C | 29% | 1016.5 hPa | - | - | - | - |
| 1777448948 | 15.56° C | 30% | 1016.6 hPa | - | - | - | - |
| 1777447743 | 14.44° C | 32% | 1016.5 hPa | - | - | - | - |
| 1777446539 | 13.89° C | 33% | 1016.6 hPa | - | - | - | - |
| 1777445335 | 13.33° C | 33% | 1016.7 hPa | - | - | - | - |
| 1777442926 | 12.22° C | 34% | 1016.6 hPa | - | - | - | - |
| 1777441722 | 12.78° C | 34% | 1016.6 hPa | - | - | - | - |
| 1777440517 | 11.67° C | 36% | 1016.6 hPa | - | - | - | - |
| 1777439313 | 11.11° C | 37% | 1016.5 hPa | - | - | - | - |
| 1777438108 | 11.11° C | 37% | 1016.4 hPa | - | - | - | - |
| 1777436904 | 11.11° C | 37% | 1016.3 hPa | - | - | - | - |
| 1777435699 | 11.67° C | 37% | 1016.3 hPa | - | - | - | - |
| 1777434495 | 11.67° C | 36% | 1016.4 hPa | - | - | - | - |
| 1777433291 | 12.22° C | 36% | 1016.5 hPa | - | - | - | - |
| 1777430882 | 12.78° C | 34% | 1016.5 hPa | - | - | - | - |
| 1777429678 | 12.78° C | 34% | 1016.2 hPa | - | - | - | - |
| 1777428473 | 12.78° C | 34% | 1016.1 hPa | - | - | - | - |
| 1777424860 | 12.78° C | 34% | 1016 hPa | - | - | - | - |
* Rain since midnight (hover to see other rain measurements)
** Current wind speed in m/s (hover to see current wind gust speed)